createdAt,value
2023-08-22T00:00:55.850Z,28.89
2023-08-22T00:03:22.555Z,28.78
2023-08-22T00:05:49.341Z,28.70
2023-08-22T00:08:17.499Z,28.81
2023-08-22T00:10:44.205Z,28.43
2023-08-22T00:13:10.814Z,28.88
2023-08-22T00:15:37.557Z,28.51
2023-08-22T00:18:13.098Z,28.83
2023-08-22T00:20:50.420Z,28.97
2023-08-22T00:23:17.788Z,28.81
2023-08-22T00:25:44.407Z,28.85
2023-08-22T00:28:11.930Z,28.96
2023-08-22T00:30:39.899Z,28.79
2023-08-22T00:33:19.956Z,28.98
2023-08-22T00:35:47.250Z,28.97
2023-08-22T00:38:13.952Z,28.92
2023-08-22T00:40:41.205Z,28.79
2023-08-22T00:43:07.879Z,28.86
2023-08-22T00:45:42.378Z,28.39
2023-08-22T00:48:18.244Z,28.68
2023-08-22T00:50:52.907Z,28.70
2023-08-22T00:53:19.639Z,28.66
2023-08-22T00:55:46.478Z,28.67
2023-08-22T00:58:15.211Z,28.07
2023-08-22T01:00:42.219Z,28.50
2023-08-22T01:03:13.098Z,28.43
2023-08-22T01:05:48.962Z,28.39
2023-08-22T01:08:25.766Z,28.51
2023-08-22T01:11:00.268Z,28.44
2023-08-22T01:13:34.137Z,28.42
2023-08-22T01:16:02.411Z,27.44
2023-08-22T01:18:30.119Z,28.36
2023-08-22T01:21:05.613Z,28.39
2023-08-22T01:23:32.539Z,28.25
2023-08-22T01:25:59.645Z,28.12
2023-08-22T01:28:29.941Z,28.34
2023-08-22T01:31:12.551Z,28.30
2023-08-22T01:33:43.999Z,28.27
2023-08-22T01:36:13.144Z,28.17
2023-08-22T01:38:49.010Z,28.26
2023-08-22T01:41:16.825Z,28.26
2023-08-22T01:43:44.396Z,28.01
2023-08-22T01:46:11.093Z,28.14
2023-08-22T01:48:38.264Z,28.09
2023-08-22T01:51:08.075Z,28.11
2023-08-22T01:53:34.730Z,28.32
2023-08-22T01:56:02.423Z,28.25
2023-08-22T01:58:31.269Z,28.34
2023-08-22T02:00:58.817Z,28.34
2023-08-22T02:03:25.732Z,28.33
2023-08-22T02:05:52.428Z,28.36
2023-08-22T02:08:19.013Z,28.29
2023-08-22T02:10:45.633Z,28.08
2023-08-22T02:13:14.631Z,28.17
2023-08-22T02:15:41.841Z,28.12
2023-08-22T02:18:08.504Z,28.10
2023-08-22T02:20:35.239Z,27.68
2023-08-22T02:23:03.746Z,28.16
2023-08-22T02:25:37.136Z,28.02
2023-08-22T02:28:04.821Z,28.08
2023-08-22T02:30:31.458Z,28.25
2023-08-22T02:33:01.826Z,28.43
2023-08-22T02:35:28.494Z,28.18
2023-08-22T02:37:56.811Z,28.23
2023-08-22T02:40:30.026Z,28.16
2023-08-22T02:42:56.954Z,28.12
2023-08-22T02:45:23.605Z,28.17
2023-08-22T02:47:52.462Z,27.98
2023-08-22T02:50:19.897Z,28.02
2023-08-22T02:52:51.474Z,28.03
2023-08-22T02:55:19.941Z,27.98
2023-08-22T02:57:51.544Z,27.88
2023-08-22T03:00:19.520Z,27.64
2023-08-22T03:02:46.261Z,27.78
2023-08-22T03:05:20.737Z,27.77
2023-08-22T03:07:52.679Z,27.62
2023-08-22T03:10:21.092Z,27.78
2023-08-22T03:12:51.628Z,27.71
2023-08-22T03:15:27.368Z,27.69
2023-08-22T03:17:54.005Z,27.22
2023-08-22T03:20:20.747Z,27.60
2023-08-22T03:22:47.300Z,27.64
2023-08-22T03:25:19.037Z,27.69
2023-08-22T03:27:45.631Z,27.69
2023-08-22T03:30:12.538Z,27.52
2023-08-22T03:32:49.644Z,27.56
2023-08-22T03:35:16.309Z,27.59
2023-08-22T03:37:43.476Z,27.67
2023-08-22T03:40:21.377Z,27.49
2023-08-22T03:42:53.376Z,27.73
2023-08-22T03:45:20.001Z,27.64
2023-08-22T03:47:46.729Z,27.56
2023-08-22T03:50:17.717Z,27.63
2023-08-22T03:52:44.397Z,27.61
2023-08-22T03:55:19.146Z,27.64
2023-08-22T03:57:45.797Z,27.60
2023-08-22T04:00:13.224Z,27.60
2023-08-22T04:02:40.023Z,27.70
2023-08-22T04:05:07.157Z,27.22
2023-08-22T04:07:36.407Z,27.62
2023-08-22T04:10:04.004Z,27.59
2023-08-22T04:12:30.642Z,27.29
2023-08-22T04:14:57.654Z,27.56
2023-08-22T04:17:24.445Z,27.69
2023-08-22T04:19:52.218Z,27.71
2023-08-22T04:22:20.417Z,27.14
2023-08-22T04:24:47.046Z,27.68
2023-08-22T04:27:13.918Z,27.60
2023-08-22T04:29:41.118Z,28.01
2023-08-22T04:32:10.154Z,27.96
2023-08-22T04:34:36.717Z,27.48
2023-08-22T04:37:05.541Z,27.72
2023-08-22T04:39:32.264Z,27.62
2023-08-22T04:41:59.076Z,27.82
2023-08-22T04:44:27.174Z,27.09
2023-08-22T04:46:53.830Z,27.90
2023-08-22T04:49:20.515Z,27.73
2023-08-22T04:51:47.246Z,27.49
2023-08-22T04:54:14.164Z,27.41
2023-08-22T04:56:40.734Z,27.20
2023-08-22T04:59:07.715Z,27.16
2023-08-22T05:01:34.610Z,26.39
2023-08-22T05:04:01.521Z,26.90
2023-08-22T05:06:28.227Z,26.86
2023-08-22T05:08:54.944Z,26.81
2023-08-22T05:11:22.925Z,26.78
2023-08-22T05:13:49.520Z,26.67
2023-08-22T05:16:16.264Z,26.55
2023-08-22T05:18:42.938Z,26.67
2023-08-22T05:21:11.456Z,26.55
2023-08-22T05:23:41.632Z,26.53
2023-08-22T05:26:12.121Z,26.80
2023-08-22T05:28:38.713Z,26.41
2023-08-22T05:31:05.265Z,25.85
2023-08-22T05:33:31.903Z,26.77
2023-08-22T05:35:58.508Z,26.96
2023-08-22T05:38:28.319Z,26.88
2023-08-22T05:40:54.953Z,26.76
2023-08-22T05:43:21.579Z,27.09
2023-08-22T05:45:48.277Z,27.09
2023-08-22T05:48:17.881Z,26.98
2023-08-22T05:50:44.653Z,27.17
2023-08-22T05:53:15.556Z,27.36
2023-08-22T05:55:44.278Z,27.61
2023-08-22T05:58:11.169Z,27.49
2023-08-22T06:00:38.809Z,27.80
2023-08-22T06:03:09.279Z,27.53
2023-08-22T06:05:36.725Z,27.79
2023-08-22T06:08:08.576Z,27.70
2023-08-22T06:10:35.184Z,27.80
2023-08-22T06:13:06.995Z,27.83
2023-08-22T06:15:36.860Z,27.71
2023-08-22T06:18:03.711Z,27.46
2023-08-22T06:20:30.591Z,27.86
2023-08-22T06:22:57.378Z,27.75
2023-08-22T06:25:29.030Z,27.95
2023-08-22T06:27:57.870Z,27.90
2023-08-22T06:30:24.877Z,27.94
2023-08-22T06:33:00.428Z,28.13
2023-08-22T06:35:29.436Z,28.10
2023-08-22T06:37:58.260Z,28.23
2023-08-22T06:40:24.888Z,28.15
2023-08-22T06:42:57.776Z,28.08
2023-08-22T06:45:26.019Z,28.39
2023-08-22T06:47:52.817Z,28.29
2023-08-22T06:50:20.023Z,28.56
2023-08-22T06:52:47.846Z,28.46
2023-08-22T06:55:15.059Z,28.56
2023-08-22T06:57:51.560Z,28.77
2023-08-22T07:00:19.357Z,28.79
2023-08-22T07:02:47.598Z,28.51
2023-08-22T07:05:16.338Z,28.82
2023-08-22T07:07:45.545Z,29.02
2023-08-22T07:10:14.945Z,29.01
2023-08-22T07:12:44.163Z,29.11
2023-08-22T07:15:11.596Z,29.23
2023-08-22T07:17:39.254Z,29.31
2023-08-22T07:20:08.283Z,29.12
2023-08-22T07:22:34.945Z,29.36
2023-08-22T07:25:01.717Z,29.32
2023-08-22T07:27:28.602Z,29.39
2023-08-22T07:29:55.639Z,29.43
2023-08-22T07:32:27.401Z,29.37
2023-08-22T07:34:54.758Z,29.46
2023-08-22T07:37:21.502Z,29.64
2023-08-22T07:39:48.095Z,29.28
2023-08-22T07:42:26.228Z,29.73
2023-08-22T07:44:52.819Z,29.82
2023-08-22T07:47:21.051Z,29.88
2023-08-22T07:49:51.874Z,29.91
2023-08-22T07:52:18.622Z,29.85
2023-08-22T07:54:46.943Z,29.88
2023-08-22T07:57:18.816Z,29.98
2023-08-22T07:59:51.465Z,30.06
2023-08-22T08:02:20.975Z,30.01
2023-08-22T08:05:42.646Z,30.01
2023-08-22T08:09:29.384Z,30.06
2023-08-22T08:18:50.507Z,30.37
2023-08-22T08:21:43.278Z,30.39
2023-08-22T08:24:09.925Z,30.13
2023-08-22T08:26:36.620Z,30.38
2023-08-22T08:29:08.179Z,30.47
2023-08-22T08:31:41.110Z,30.56
2023-08-22T08:34:07.898Z,30.53
2023-08-22T08:36:38.658Z,30.71
2023-08-22T08:39:05.246Z,30.63
2023-08-22T08:41:37.430Z,30.39
2023-08-22T08:44:10.062Z,30.60
2023-08-22T08:46:37.556Z,30.04
2023-08-22T08:49:06.815Z,30.67
2023-08-22T08:51:34.540Z,30.87
2023-08-22T08:54:05.897Z,30.94
2023-08-22T08:56:32.614Z,30.92
2023-08-22T08:59:02.966Z,30.86
2023-08-22T09:01:31.191Z,30.89
2023-08-22T09:03:58.151Z,30.87
2023-08-22T09:06:25.687Z,30.81
2023-08-22T09:09:05.815Z,30.93
2023-08-22T09:11:36.045Z,31.15
2023-08-22T09:14:06.192Z,30.81
2023-08-22T09:16:33.462Z,30.98
2023-08-22T09:19:01.226Z,31.08
2023-08-22T09:21:32.658Z,31.44
2023-08-22T09:24:09.765Z,31.48
2023-08-22T09:26:40.782Z,31.58
2023-08-22T09:29:08.284Z,31.83
2023-08-22T09:31:36.924Z,32.01
2023-08-22T09:34:11.965Z,32.08
2023-08-22T09:36:50.626Z,32.23
2023-08-22T09:39:18.853Z,32.45
2023-08-22T09:41:45.572Z,32.66
2023-08-22T09:44:26.201Z,32.61
2023-08-22T09:47:10.081Z,32.66
2023-08-22T09:49:53.658Z,32.36
2023-08-22T09:52:24.224Z,32.28
2023-08-22T09:55:04.408Z,32.10
2023-08-22T09:57:45.401Z,32.22
2023-08-22T10:00:19.227Z,32.72
2023-08-22T10:02:55.016Z,32.40
2023-08-22T10:05:36.409Z,32.53
2023-08-22T10:08:04.450Z,32.40
2023-08-22T10:10:44.184Z,32.74
2023-08-22T10:13:19.048Z,33.12
2023-08-22T10:15:48.269Z,33.11
2023-08-22T10:18:19.287Z,33.31
2023-08-22T10:20:46.289Z,32.90
2023-08-22T10:23:13.084Z,32.76
2023-08-22T10:25:59.330Z,32.75
2023-08-22T10:28:36.487Z,33.19
2023-08-22T10:31:08.623Z,33.31
2023-08-22T10:33:41.738Z,33.18
2023-08-22T10:36:29.715Z,33.48
2023-08-22T10:39:11.077Z,33.44
2023-08-22T10:42:06.380Z,33.77
2023-08-22T10:44:41.265Z,33.74
2023-08-22T10:47:21.209Z,33.73
2023-08-22T10:52:42.686Z,33.67
2023-08-22T10:55:16.130Z,34.00
2023-08-22T10:57:46.807Z,33.93
2023-08-22T11:00:23.807Z,33.42
2023-08-22T11:02:57.297Z,33.98
2023-08-22T11:05:24.632Z,34.12
2023-08-22T11:07:53.491Z,34.31
2023-08-22T11:10:24.987Z,34.37
2023-08-22T11:13:04.131Z,34.69
2023-08-22T11:15:38.137Z,34.62
2023-08-22T11:18:15.148Z,34.56
2023-08-22T11:20:50.076Z,34.94
2023-08-22T11:23:18.213Z,34.92
2023-08-22T11:25:44.831Z,35.09
2023-08-22T11:28:30.389Z,35.36
2023-08-22T11:31:08.850Z,34.88
2023-08-22T11:33:56.018Z,35.05
2023-08-22T11:40:16.553Z,34.35
2023-08-22T11:42:43.682Z,34.43
2023-08-22T11:45:14.743Z,34.44
2023-08-22T11:47:47.617Z,34.46
2023-08-22T11:50:19.725Z,34.38
2023-08-22T11:52:49.009Z,34.00
2023-08-22T11:55:18.218Z,33.98
2023-08-22T11:57:47.512Z,34.00
2023-08-22T12:00:15.488Z,33.73
2023-08-22T12:02:52.936Z,33.29
2023-08-22T12:05:31.594Z,33.38
2023-08-22T12:07:59.689Z,33.38
2023-08-22T12:10:26.559Z,33.14
2023-08-22T12:12:53.897Z,33.03
2023-08-22T12:15:20.592Z,32.65
2023-08-22T12:17:48.168Z,33.12
2023-08-22T12:20:15.074Z,33.33
2023-08-22T12:22:41.957Z,33.33
2023-08-22T12:25:08.911Z,33.39
2023-08-22T12:27:37.023Z,33.18
2023-08-22T12:30:04.193Z,32.83
2023-08-22T12:32:31.992Z,32.98
2023-08-22T12:35:01.394Z,32.88
2023-08-22T12:37:31.595Z,33.50
2023-08-22T12:40:00.806Z,33.57
2023-08-22T12:42:27.647Z,33.45
2023-08-22T12:44:54.282Z,33.04
2023-08-22T12:47:20.983Z,32.89
2023-08-22T12:49:47.813Z,33.67
2023-08-22T12:52:14.753Z,33.79
2023-08-22T12:54:41.484Z,33.74
2023-08-22T12:57:09.686Z,33.69
2023-08-22T12:59:37.306Z,33.84
2023-08-22T13:02:04.294Z,34.20
2023-08-22T13:04:34.312Z,34.23
2023-08-22T13:07:04.359Z,33.45
2023-08-22T13:09:34.621Z,33.98
2023-08-22T13:12:01.336Z,34.08
2023-08-22T13:14:28.322Z,34.46
2023-08-22T13:16:56.378Z,34.05
2023-08-22T13:19:28.636Z,34.22
2023-08-22T13:21:55.282Z,34.11
2023-08-22T13:24:22.544Z,33.53
2023-08-22T13:26:49.239Z,33.86
2023-08-22T13:29:17.207Z,34.18
2023-08-22T13:31:44.064Z,33.81
2023-08-22T13:34:10.740Z,33.02
2023-08-22T13:36:37.485Z,32.74
2023-08-22T13:39:05.692Z,32.78
2023-08-22T13:41:32.660Z,32.80
2023-08-22T13:43:59.841Z,32.36
2023-08-22T13:46:30.028Z,32.87
2023-08-22T13:48:57.576Z,32.79
2023-08-22T13:51:24.500Z,33.22
2023-08-22T13:53:51.254Z,33.30
2023-08-22T13:56:18.076Z,33.40
2023-08-22T13:58:44.907Z,33.32
2023-08-22T14:01:11.651Z,32.78
2023-08-22T14:03:38.406Z,32.48
2023-08-22T14:06:07.484Z,32.29
2023-08-22T14:08:35.895Z,32.39
2023-08-22T14:11:02.735Z,32.05
2023-08-22T14:13:29.443Z,32.44
2023-08-22T14:15:56.286Z,32.81
2023-08-22T14:18:23.171Z,32.89
2023-08-22T14:20:49.983Z,33.03
2023-08-22T14:23:16.739Z,33.14
2023-08-22T14:25:46.585Z,33.24
2023-08-22T14:28:16.149Z,33.49
2023-08-22T14:30:42.817Z,32.80
2023-08-22T14:33:11.993Z,33.28
2023-08-22T14:35:42.827Z,32.78
2023-08-22T14:38:12.230Z,32.53
2023-08-22T14:40:39.117Z,32.09
2023-08-22T14:43:06.010Z,31.93
2023-08-22T14:45:36.692Z,32.34
2023-08-22T14:48:17.777Z,31.96
2023-08-22T14:50:46.415Z,32.11
2023-08-22T14:53:14.933Z,32.13
2023-08-22T14:56:00.516Z,32.52
2023-08-22T14:58:48.182Z,31.63
2023-08-22T15:01:18.676Z,32.19
2023-08-22T15:03:48.292Z,32.36
2023-08-22T15:06:15.194Z,31.95
2023-08-22T15:08:45.466Z,31.93
2023-08-22T15:11:12.519Z,31.59
2023-08-22T15:13:43.685Z,31.98
2023-08-22T15:16:11.083Z,31.91
2023-08-22T15:18:39.411Z,31.04
2023-08-22T15:21:09.231Z,31.96
2023-08-22T15:23:39.536Z,32.06
2023-08-22T15:26:06.529Z,32.43
2023-08-22T15:28:33.374Z,32.25
2023-08-22T15:31:00.165Z,32.11
2023-08-22T15:33:29.070Z,31.90
2023-08-22T15:36:02.086Z,31.96
2023-08-22T15:38:33.558Z,31.72
2023-08-22T15:41:02.179Z,31.36
2023-08-22T15:43:31.108Z,31.59
2023-08-22T15:45:58.067Z,31.86
2023-08-22T15:48:28.362Z,31.78
2023-08-22T15:50:58.800Z,31.41
2023-08-22T15:53:34.003Z,31.50
2023-08-22T15:56:07.129Z,31.77
2023-08-22T15:58:34.219Z,31.69
2023-08-22T16:01:00.976Z,31.14
2023-08-22T16:03:27.877Z,31.70
2023-08-22T16:06:00.662Z,31.86
2023-08-22T16:08:30.843Z,32.07
2023-08-22T16:11:01.342Z,32.06
2023-08-22T16:13:31.151Z,31.55
2023-08-22T16:15:58.375Z,31.77
2023-08-22T16:18:25.292Z,31.67
2023-08-22T16:20:53.266Z,32.01
2023-08-22T16:23:22.912Z,31.88
2023-08-22T16:25:51.000Z,31.77
2023-08-22T16:28:23.630Z,31.65
2023-08-22T16:30:51.564Z,31.34
2023-08-22T16:33:18.944Z,31.48
2023-08-22T16:35:52.874Z,31.50
2023-08-22T16:38:21.052Z,31.52
2023-08-22T16:40:47.786Z,31.64
2023-08-22T16:43:14.687Z,31.50
2023-08-22T16:45:42.863Z,31.57
2023-08-22T16:48:09.824Z,31.82
2023-08-22T16:50:49.880Z,31.76
2023-08-22T16:53:17.004Z,31.65
2023-08-22T16:55:44.579Z,31.82
2023-08-22T16:58:11.691Z,31.37
2023-08-22T17:03:20.448Z,30.99
2023-08-22T17:05:47.527Z,31.56
2023-08-22T17:08:18.956Z,31.52
2023-08-22T17:10:46.497Z,31.56
2023-08-22T17:13:13.489Z,31.46
2023-08-22T17:15:45.327Z,31.60
2023-08-22T17:18:12.739Z,31.49
2023-08-22T17:20:49.776Z,31.43
2023-08-22T17:23:22.682Z,31.12
2023-08-22T17:25:50.491Z,31.19
2023-08-22T17:28:21.284Z,31.14
2023-08-22T17:30:49.549Z,31.32
2023-08-22T17:33:16.582Z,31.30
2023-08-22T17:35:51.084Z,31.08
2023-08-22T17:38:18.677Z,31.20
2023-08-22T17:40:45.459Z,31.13
2023-08-22T17:43:12.480Z,31.01
2023-08-22T17:45:39.352Z,31.24
2023-08-22T17:48:09.302Z,30.77
2023-08-22T17:50:38.233Z,31.22
2023-08-22T17:53:06.433Z,30.87
2023-08-22T17:55:34.954Z,31.02
2023-08-22T17:58:04.898Z,31.18
2023-08-22T18:00:34.452Z,31.21
2023-08-22T18:03:01.513Z,30.97
2023-08-22T18:05:28.449Z,31.16
2023-08-22T18:07:55.201Z,31.18
2023-08-22T18:10:24.798Z,31.34
2023-08-22T18:12:51.848Z,30.90
2023-08-22T18:15:18.649Z,31.04
2023-08-22T18:17:45.785Z,31.18
2023-08-22T18:20:21.055Z,31.20
2023-08-22T18:22:50.464Z,30.97
2023-08-22T18:25:17.726Z,31.17
2023-08-22T18:27:45.280Z,31.38
2023-08-22T18:30:12.918Z,31.11
2023-08-22T18:32:39.697Z,31.15
2023-08-22T18:35:07.567Z,31.29
2023-08-22T18:37:37.574Z,30.84
2023-08-22T18:40:13.239Z,31.05
2023-08-22T18:42:41.872Z,31.26
2023-08-22T18:45:09.140Z,30.83
2023-08-22T18:47:36.189Z,31.05
2023-08-22T18:50:04.517Z,30.95
2023-08-22T18:52:33.106Z,31.19
2023-08-22T18:55:00.925Z,31.04
2023-08-22T18:57:28.603Z,31.14
2023-08-22T18:59:55.691Z,30.99
2023-08-22T19:02:22.791Z,31.13
2023-08-22T19:04:52.790Z,31.08
2023-08-22T19:07:19.601Z,30.65
2023-08-22T19:09:46.303Z,31.22
2023-08-22T19:12:13.821Z,30.67
2023-08-22T19:14:40.739Z,30.80
2023-08-22T19:17:07.994Z,30.50
2023-08-22T19:19:34.685Z,30.75
2023-08-22T19:22:01.479Z,30.58
2023-08-22T19:24:28.537Z,30.67
2023-08-22T19:27:01.241Z,30.79
2023-08-22T19:29:31.263Z,30.76
2023-08-22T19:32:17.318Z,31.01
2023-08-22T19:34:49.510Z,30.97
2023-08-22T19:37:16.320Z,31.21
2023-08-22T19:39:48.426Z,31.09
2023-08-22T19:42:15.550Z,31.22
2023-08-22T19:44:42.236Z,31.16
2023-08-22T19:47:09.153Z,31.11
2023-08-22T19:49:39.206Z,31.11
2023-08-22T19:52:07.284Z,31.09
2023-08-22T19:54:34.647Z,31.15
2023-08-22T19:57:01.353Z,30.77
2023-08-22T19:59:28.904Z,30.71
2023-08-22T20:01:56.270Z,30.83
2023-08-22T20:04:23.505Z,30.83
2023-08-22T20:06:50.427Z,30.88
2023-08-22T20:09:17.133Z,30.34
2023-08-22T20:11:44.209Z,30.60
2023-08-22T20:14:10.896Z,30.52
2023-08-22T20:16:38.933Z,30.13
2023-08-22T20:19:05.816Z,30.47
2023-08-22T20:21:32.906Z,30.89
2023-08-22T20:24:02.216Z,30.78
2023-08-22T20:26:29.471Z,30.84
2023-08-22T20:28:56.165Z,30.85
2023-08-22T20:31:23.415Z,30.74
2023-08-22T20:33:50.143Z,30.54
2023-08-22T20:36:16.890Z,30.37
2023-08-22T20:38:43.543Z,30.84
2023-08-22T20:41:18.746Z,30.84
2023-08-22T20:43:57.162Z,30.78
2023-08-22T20:46:24.124Z,30.60
2023-08-22T20:48:54.686Z,30.83
2023-08-22T20:51:21.572Z,30.73
2023-08-22T20:53:51.026Z,30.78
2023-08-22T20:56:20.039Z,30.67
2023-08-22T20:58:49.900Z,30.55
2023-08-22T21:01:17.415Z,30.65
2023-08-22T21:03:46.110Z,30.35
2023-08-22T21:06:14.682Z,30.54
2023-08-22T21:08:41.806Z,30.54
2023-08-22T21:11:08.758Z,30.57
2023-08-22T21:13:35.622Z,30.57
2023-08-22T21:16:13.819Z,30.48
2023-08-22T21:18:50.834Z,30.43
2023-08-22T21:21:28.141Z,30.34
2023-08-22T21:23:58.991Z,30.35
2023-08-22T21:26:25.880Z,30.30
2023-08-22T21:28:52.817Z,30.23
2023-08-22T21:31:23.363Z,30.30
2023-08-22T21:33:50.288Z,29.90
2023-08-22T21:36:18.656Z,30.10
2023-08-22T21:38:45.480Z,30.11
2023-08-22T21:41:12.285Z,30.10
2023-08-22T21:43:39.218Z,30.02
2023-08-22T21:46:08.593Z,29.52
2023-08-22T21:48:43.493Z,30.10
2023-08-22T21:51:10.588Z,30.13
2023-08-22T21:53:46.733Z,30.10
2023-08-22T21:56:16.699Z,29.86
2023-08-22T21:58:46.264Z,29.66
2023-08-22T22:01:14.358Z,29.93
2023-08-22T22:03:46.702Z,29.79
2023-08-22T22:06:13.429Z,29.68
2023-08-22T22:08:42.361Z,29.82
2023-08-22T22:11:09.141Z,29.72
2023-08-22T22:13:41.282Z,29.75
2023-08-22T22:16:15.503Z,29.76
2023-08-22T22:18:42.459Z,29.70
2023-08-22T22:21:09.222Z,29.58
2023-08-22T22:23:43.845Z,29.60
2023-08-22T22:26:15.043Z,29.72
2023-08-22T22:28:42.033Z,29.63
2023-08-22T22:31:11.894Z,29.36
2023-08-22T22:33:39.774Z,29.32
2023-08-22T22:36:07.223Z,29.58
2023-08-22T22:38:35.057Z,29.52
2023-08-22T22:41:03.483Z,29.43
2023-08-22T22:43:36.923Z,29.54
2023-08-22T22:46:04.651Z,29.24
2023-08-22T22:48:31.643Z,29.35
2023-08-22T22:50:58.409Z,29.51
2023-08-22T22:53:25.214Z,29.34
2023-08-22T22:55:52.249Z,29.44
2023-08-22T22:58:19.152Z,29.37
2023-08-22T23:00:46.534Z,29.38
2023-08-22T23:03:18.593Z,29.33
2023-08-22T23:05:45.478Z,29.39
2023-08-22T23:08:12.330Z,29.35
2023-08-22T23:10:39.037Z,29.23
2023-08-22T23:13:09.433Z,29.18
2023-08-22T23:15:36.450Z,29.29
2023-08-22T23:18:03.435Z,29.26
2023-08-22T23:20:31.135Z,29.03
2023-08-22T23:22:57.980Z,29.19
2023-08-22T23:25:24.782Z,29.18
2023-08-22T23:27:51.605Z,29.02
2023-08-22T23:30:18.373Z,29.00
2023-08-22T23:32:46.065Z,28.95
2023-08-22T23:35:21.566Z,28.85
2023-08-22T23:37:50.495Z,28.93
2023-08-22T23:40:29.722Z,29.04
2023-08-22T23:43:01.355Z,28.72
2023-08-22T23:45:31.475Z,28.90
2023-08-22T23:47:59.753Z,29.17
2023-08-22T23:50:31.176Z,28.99
2023-08-22T23:53:00.632Z,29.04
2023-08-22T23:55:27.375Z,28.80
2023-08-22T23:58:01.986Z,28.83
